sensor_id;sensor_type;location;lat;lon;timestamp;pressure;altitude;pressure_sealevel;temperature;humidity
14800;BME280;7491;57.750;11.970;2023-06-22T00:01:56;75109.94;;;-142.11;100.00
14800;BME280;7491;57.750;11.970;2023-06-22T00:04:23;75107.88;;;-142.11;100.00
14800;BME280;7491;57.750;11.970;2023-06-22T00:06:50;75099.72;;;-142.11;100.00
14800;BME280;7491;57.750;11.970;2023-06-22T00:09:17;75107.88;;;-142.11;100.00
14800;BME280;7491;57.750;11.970;2023-06-22T00:11:43;75120.13;;;-142.11;100.00
14800;BME280;7491;57.750;11.970;2023-06-22T00:14:12;75103.81;;;-142.11;100.00
14800;BME280;7491;57.750;11.970;2023-06-22T00:16:38;75122.16;;;-142.11;100.00
14800;BME280;7491;57.750;11.970;2023-06-22T00:19:08;75109.94;;;-142.11;100.00
14800;BME280;7491;57.750;11.970;2023-06-22T00:21:37;75120.13;;;-142.11;100.00
14800;BME280;7491;57.750;11.970;2023-06-22T00:24:04;75124.19;;;-142.11;100.00
14800;BME280;7491;57.750;11.970;2023-06-22T00:26:32;75118.06;;;-142.11;100.00
14800;BME280;7491;57.750;11.970;2023-06-22T00:28:59;75116.03;;;-142.11;100.00
14800;BME280;7491;57.750;11.970;2023-06-22T00:31:27;75122.16;;;-142.11;100.00
14800;BME280;7491;57.750;11.970;2023-06-22T00:33:54;75124.19;;;-142.11;100.00
14800;BME280;7491;57.750;11.970;2023-06-22T00:36:20;75126.22;;;-142.11;100.00
14800;BME280;7491;57.750;11.970;2023-06-22T00:38:50;75134.38;;;-142.11;100.00
14800;BME280;7491;57.750;11.970;2023-06-22T00:41:16;75132.34;;;-142.11;100.00
14800;BME280;7491;57.750;11.970;2023-06-22T00:43:43;75148.66;;;-142.11;100.00
14800;BME280;7491;57.750;11.970;2023-06-22T00:46:10;75138.44;;;-142.11;100.00
14800;BME280;7491;57.750;11.970;2023-06-22T00:48:40;75144.56;;;-142.11;100.00
14800;BME280;7491;57.750;11.970;2023-06-22T00:51:07;75154.75;;;-142.11;100.00
14800;BME280;7491;57.750;11.970;2023-06-22T00:53:34;75164.94;;;-142.11;100.00
14800;BME280;7491;57.750;11.970;2023-06-22T00:56:03;75154.75;;;-142.11;100.00
14800;BME280;7491;57.750;11.970;2023-06-22T00:58:31;75173.09;;;-142.11;100.00
14800;BME280;7491;57.750;11.970;2023-06-22T01:00:58;75164.94;;;-142.11;100.00
14800;BME280;7491;57.750;11.970;2023-06-22T01:03:25;75189.41;;;-142.11;100.00
14800;BME280;7491;57.750;11.970;2023-06-22T01:05:55;75175.13;;;-142.11;100.00
14800;BME280;7491;57.750;11.970;2023-06-22T01:08:32;75179.22;;;-142.11;100.00
14800;BME280;7491;57.750;11.970;2023-06-22T01:11:07;75166.97;;;-142.11;100.00
14800;BME280;7491;57.750;11.970;2023-06-22T01:13:39;75179.22;;;-142.11;100.00
14800;BME280;7491;57.750;11.970;2023-06-22T01:16:12;75175.13;;;-142.11;100.00
14800;BME280;7491;57.750;11.970;2023-06-22T01:18:42;75185.31;;;-142.11;100.00
14800;BME280;7491;57.750;11.970;2023-06-22T01:21:13;75179.22;;;-142.11;100.00
14800;BME280;7491;57.750;11.970;2023-06-22T01:23:51;75185.31;;;-142.11;100.00
14800;BME280;7491;57.750;11.970;2023-06-22T01:26:25;75189.41;;;-142.11;100.00
14800;BME280;7491;57.750;11.970;2023-06-22T01:28:57;75191.44;;;-142.11;100.00
14800;BME280;7491;57.750;11.970;2023-06-22T01:31:26;75197.56;;;-142.11;100.00
14800;BME280;7491;57.750;11.970;2023-06-22T01:33:58;75211.81;;;-142.11;100.00
14800;BME280;7491;57.750;11.970;2023-06-22T01:36:26;75199.59;;;-142.11;100.00
14800;BME280;7491;57.750;11.970;2023-06-22T01:38:53;75207.75;;;-142.11;100.00
14800;BME280;7491;57.750;11.970;2023-06-22T01:41:20;75201.63;;;-142.11;100.00
14800;BME280;7491;57.750;11.970;2023-06-22T01:43:48;75201.63;;;-142.11;100.00
14800;BME280;7491;57.750;11.970;2023-06-22T01:46:18;75197.56;;;-142.11;100.00
14800;BME280;7491;57.750;11.970;2023-06-22T01:48:46;75193.47;;;-142.11;100.00
14800;BME280;7491;57.750;11.970;2023-06-22T01:51:13;75197.56;;;-142.11;100.00
14800;BME280;7491;57.750;11.970;2023-06-22T01:53:40;75191.44;;;-142.11;100.00
14800;BME280;7491;57.750;11.970;2023-06-22T01:56:07;75191.44;;;-142.11;100.00
14800;BME280;7491;57.750;11.970;2023-06-22T01:58:37;75181.25;;;-142.11;100.00
14800;BME280;7491;57.750;11.970;2023-06-22T02:01:10;75183.28;;;-142.11;100.00
14800;BME280;7491;57.750;11.970;2023-06-22T02:03:44;75183.28;;;-142.11;100.00
14800;BME280;7491;57.750;11.970;2023-06-22T02:06:17;75177.16;;;-142.11;100.00
14800;BME280;7491;57.750;11.970;2023-06-22T02:08:49;75177.16;;;-142.11;100.00
14800;BME280;7491;57.750;11.970;2023-06-22T02:11:19;75181.25;;;-142.11;100.00
14800;BME280;7491;57.750;11.970;2023-06-22T02:13:47;75181.25;;;-142.11;100.00
14800;BME280;7491;57.750;11.970;2023-06-22T02:16:15;75191.44;;;-142.11;100.00
14800;BME280;7491;57.750;11.970;2023-06-22T02:18:47;75185.31;;;-142.11;100.00
14800;BME280;7491;57.750;11.970;2023-06-22T02:21:16;75181.25;;;-142.11;100.00
14800;BME280;7491;57.750;11.970;2023-06-22T02:23:43;75193.47;;;-142.11;100.00
14800;BME280;7491;57.750;11.970;2023-06-22T02:26:09;75183.28;;;-142.11;100.00
14800;BME280;7491;57.750;11.970;2023-06-22T02:28:36;75171.06;;;-142.11;100.00
14800;BME280;7491;57.750;11.970;2023-06-22T02:31:03;75185.31;;;-142.11;100.00
14800;BME280;7491;57.750;11.970;2023-06-22T02:33:30;75181.25;;;-142.11;100.00
14800;BME280;7491;57.750;11.970;2023-06-22T02:35:58;75181.25;;;-142.11;100.00
14800;BME280;7491;57.750;11.970;2023-06-22T02:38:25;75183.28;;;-142.11;100.00
14800;BME280;7491;57.750;11.970;2023-06-22T02:40:52;75193.47;;;-142.11;100.00
14800;BME280;7491;57.750;11.970;2023-06-22T02:43:18;75193.47;;;-142.11;100.00
14800;BME280;7491;57.750;11.970;2023-06-22T02:45:45;75197.56;;;-142.11;100.00
14800;BME280;7491;57.750;11.970;2023-06-22T02:48:12;75189.41;;;-142.11;100.00
14800;BME280;7491;57.750;11.970;2023-06-22T02:50:38;75199.59;;;-142.11;100.00
14800;BME280;7491;57.750;11.970;2023-06-22T02:53:07;75191.44;;;-142.11;100.00
14800;BME280;7491;57.750;11.970;2023-06-22T02:55:33;75189.41;;;-142.11;100.00
14800;BME280;7491;57.750;11.970;2023-06-22T02:58:00;75191.44;;;-142.11;100.00
14800;BME280;7491;57.750;11.970;2023-06-22T03:00:30;75183.28;;;-142.11;100.00
14800;BME280;7491;57.750;11.970;2023-06-22T03:02:57;75193.47;;;-142.11;100.00
14800;BME280;7491;57.750;11.970;2023-06-22T03:05:24;75175.13;;;-142.11;100.00
14800;BME280;7491;57.750;11.970;2023-06-22T03:07:51;75191.44;;;-142.11;100.00
14800;BME280;7491;57.750;11.970;2023-06-22T03:10:19;75183.28;;;-142.11;100.00
14800;BME280;7491;57.750;11.970;2023-06-22T03:12:46;75177.16;;;-142.11;100.00
14800;BME280;7491;57.750;11.970;2023-06-22T03:15:13;75171.06;;;-142.11;100.00
14800;BME280;7491;57.750;11.970;2023-06-22T03:17:40;75181.25;;;-142.11;100.00
14800;BME280;7491;57.750;11.970;2023-06-22T03:20:08;75179.22;;;-142.11;100.00
14800;BME280;7491;57.750;11.970;2023-06-22T03:22:36;75183.28;;;-142.11;100.00
14800;BME280;7491;57.750;11.970;2023-06-22T03:25:03;75175.13;;;-142.11;100.00
14800;BME280;7491;57.750;11.970;2023-06-22T03:27:31;75179.22;;;-142.11;100.00
14800;BME280;7491;57.750;11.970;2023-06-22T03:29:58;75169.03;;;-142.11;100.00
14800;BME280;7491;57.750;11.970;2023-06-22T03:32:25;75179.22;;;-142.11;100.00
14800;BME280;7491;57.750;11.970;2023-06-22T03:34:53;75171.06;;;-142.11;100.00
14800;BME280;7491;57.750;11.970;2023-06-22T03:37:20;75189.41;;;-142.11;100.00
14800;BME280;7491;57.750;11.970;2023-06-22T03:39:46;75183.28;;;-142.11;100.00
14800;BME280;7491;57.750;11.970;2023-06-22T03:42:13;75185.31;;;-142.11;100.00
14800;BME280;7491;57.750;11.970;2023-06-22T03:44:41;75177.16;;;-142.11;100.00
14800;BME280;7491;57.750;11.970;2023-06-22T03:47:08;75185.31;;;-142.11;100.00
14800;BME280;7491;57.750;11.970;2023-06-22T03:49:35;75169.03;;;-142.11;100.00
14800;BME280;7491;57.750;11.970;2023-06-22T03:52:02;75179.22;;;-142.11;100.00
14800;BME280;7491;57.750;11.970;2023-06-22T03:54:30;75185.31;;;-142.11;100.00
14800;BME280;7491;57.750;11.970;2023-06-22T03:56:57;75179.22;;;-142.11;100.00
14800;BME280;7491;57.750;11.970;2023-06-22T03:59:24;75181.25;;;-142.11;100.00
14800;BME280;7491;57.750;11.970;2023-06-22T04:01:52;75179.22;;;-142.11;100.00
14800;BME280;7491;57.750;11.970;2023-06-22T04:04:20;75193.47;;;-142.11;100.00
14800;BME280;7491;57.750;11.970;2023-06-22T04:06:47;75201.63;;;-142.11;100.00
14800;BME280;7491;57.750;11.970;2023-06-22T04:09:13;75191.44;;;-142.11;100.00
14800;BME280;7491;57.750;11.970;2023-06-22T04:11:40;75185.31;;;-142.11;100.00
14800;BME280;7491;57.750;11.970;2023-06-22T04:14:07;75193.47;;;-142.11;100.00
14800;BME280;7491;57.750;11.970;2023-06-22T04:16:33;75185.31;;;-142.11;100.00
14800;BME280;7491;57.750;11.970;2023-06-22T04:19:01;75189.41;;;-142.11;100.00
14800;BME280;7491;57.750;11.970;2023-06-22T04:21:28;75189.41;;;-142.11;100.00
14800;BME280;7491;57.750;11.970;2023-06-22T04:23:55;75183.28;;;-142.11;100.00
14800;BME280;7491;57.750;11.970;2023-06-22T04:26:22;75175.13;;;-142.11;100.00
14800;BME280;7491;57.750;11.970;2023-06-22T04:28:48;75169.03;;;-142.11;100.00
14800;BME280;7491;57.750;11.970;2023-06-22T04:31:21;75166.97;;;-142.11;100.00
14800;BME280;7491;57.750;11.970;2023-06-22T04:33:57;75162.91;;;-142.11;100.00
14800;BME280;7491;57.750;11.970;2023-06-22T04:36:33;75150.69;;;-142.11;100.00
14800;BME280;7491;57.750;11.970;2023-06-22T04:39:04;75160.88;;;-142.11;100.00
14800;BME280;7491;57.750;11.970;2023-06-22T04:41:31;75169.03;;;-142.11;100.00
14800;BME280;7491;57.750;11.970;2023-06-22T04:44:07;75171.06;;;-142.11;100.00
14800;BME280;7491;57.750;11.970;2023-06-22T04:46:34;75162.91;;;-142.11;100.00
14800;BME280;7491;57.750;11.970;2023-06-22T04:49:04;75160.88;;;-142.11;100.00
14800;BME280;7491;57.750;11.970;2023-06-22T04:51:39;75158.84;;;-142.11;100.00
14800;BME280;7491;57.750;11.970;2023-06-22T04:54:07;75144.56;;;-142.11;100.00
14800;BME280;7491;57.750;11.970;2023-06-22T04:56:34;75154.75;;;-142.11;100.00
14800;BME280;7491;57.750;11.970;2023-06-22T04:59:02;75156.78;;;-142.11;100.00
14800;BME280;7491;57.750;11.970;2023-06-22T05:01:29;75132.34;;;-142.11;100.00
14800;BME280;7491;57.750;11.970;2023-06-22T05:03:57;75138.44;;;-142.11;100.00
14800;BME280;7491;57.750;11.970;2023-06-22T05:06:26;75126.22;;;-142.11;100.00
14800;BME280;7491;57.750;11.970;2023-06-22T05:08:55;75128.25;;;-142.11;100.00
14800;BME280;7491;57.750;11.970;2023-06-22T05:11:24;75132.34;;;-142.11;100.00
14800;BME280;7491;57.750;11.970;2023-06-22T05:13:51;75136.41;;;-142.11;100.00
14800;BME280;7491;57.750;11.970;2023-06-22T05:16:18;75138.44;;;-142.11;100.00
14800;BME280;7491;57.750;11.970;2023-06-22T05:18:51;75144.56;;;-142.11;100.00
14800;BME280;7491;57.750;11.970;2023-06-22T05:21:20;75136.41;;;-142.11;100.00
14800;BME280;7491;57.750;11.970;2023-06-22T05:23:46;75136.41;;;-142.11;100.00
14800;BME280;7491;57.750;11.970;2023-06-22T05:26:14;75142.53;;;-142.11;100.00
14800;BME280;7491;57.750;11.970;2023-06-22T05:28:41;75144.56;;;-142.11;100.00
14800;BME280;7491;57.750;11.970;2023-06-22T05:31:11;75130.31;;;-142.11;100.00
14800;BME280;7491;57.750;11.970;2023-06-22T05:33:38;75138.44;;;-142.11;100.00
14800;BME280;7491;57.750;11.970;2023-06-22T05:36:05;75136.41;;;-142.11;100.00
14800;BME280;7491;57.750;11.970;2023-06-22T05:38:32;75128.25;;;-142.11;100.00
14800;BME280;7491;57.750;11.970;2023-06-22T05:40:59;75120.13;;;-142.11;100.00
14800;BME280;7491;57.750;11.970;2023-06-22T05:43:27;75120.13;;;-142.11;100.00
14800;BME280;7491;57.750;11.970;2023-06-22T05:45:54;75126.22;;;-142.11;100.00
14800;BME280;7491;57.750;11.970;2023-06-22T05:48:21;75111.97;;;-142.11;100.00
14800;BME280;7491;57.750;11.970;2023-06-22T05:50:47;75111.97;;;-142.11;100.00
14800;BME280;7491;57.750;11.970;2023-06-22T05:53:14;75107.88;;;-142.11;100.00
14800;BME280;7491;57.750;11.970;2023-06-22T05:55:41;75095.66;;;-142.11;100.00
14800;BME280;7491;57.750;11.970;2023-06-22T05:58:08;75091.59;;;-142.11;100.00
14800;BME280;7491;57.750;11.970;2023-06-22T06:00:36;75091.59;;;-142.11;100.00
14800;BME280;7491;57.750;11.970;2023-06-22T06:03:03;75079.34;;;-142.11;100.00
14800;BME280;7491;57.750;11.970;2023-06-22T06:05:30;75079.34;;;-142.11;100.00
14800;BME280;7491;57.750;11.970;2023-06-22T06:07:57;75083.44;;;-142.11;100.00
14800;BME280;7491;57.750;11.970;2023-06-22T06:10:24;75069.16;;;-142.11;100.00
14800;BME280;7491;57.750;11.970;2023-06-22T06:12:51;75056.94;;;-142.11;100.00
14800;BME280;7491;57.750;11.970;2023-06-22T06:15:18;75036.56;;;-142.11;100.00
14800;BME280;7491;57.750;11.970;2023-06-22T06:17:47;75032.47;;;-142.11;100.00
14800;BME280;7491;57.750;11.970;2023-06-22T06:20:14;75030.44;;;-142.11;100.00
14800;BME280;7491;57.750;11.970;2023-06-22T06:22:41;75050.81;;;-142.11;100.00
14800;BME280;7491;57.750;11.970;2023-06-22T06:25:09;75046.75;;;-142.11;100.00
14800;BME280;7491;57.750;11.970;2023-06-22T06:27:41;75056.94;;;-142.11;100.00
14800;BME280;7491;57.750;11.970;2023-06-22T06:30:09;75061.00;;;-142.11;100.00
14800;BME280;7491;57.750;11.970;2023-06-22T06:32:36;75048.78;;;-142.11;100.00
14800;BME280;7491;57.750;11.970;2023-06-22T06:35:06;75028.41;;;-142.11;100.00
14800;BME280;7491;57.750;11.970;2023-06-22T06:37:35;75014.16;;;-142.11;100.00
14800;BME280;7491;57.750;11.970;2023-06-22T06:40:03;75018.22;;;-142.11;100.00
14800;BME280;7491;57.750;11.970;2023-06-22T06:42:32;75010.06;;;-142.11;100.00
14800;BME280;7491;57.750;11.970;2023-06-22T06:44:59;75001.91;;;-142.11;100.00
14800;BME280;7491;57.750;11.970;2023-06-22T06:47:25;74997.84;;;-142.11;100.00
14800;BME280;7491;57.750;11.970;2023-06-22T06:49:52;75001.91;;;-142.11;100.00
14800;BME280;7491;57.750;11.970;2023-06-22T06:52:20;75010.06;;;-142.11;100.00
14800;BME280;7491;57.750;11.970;2023-06-22T06:54:47;74989.69;;;-142.11;100.00
14800;BME280;7491;57.750;11.970;2023-06-22T06:57:14;74989.69;;;-142.11;100.00
14800;BME280;7491;57.750;11.970;2023-06-22T06:59:40;74989.69;;;-142.11;100.00
14800;BME280;7491;57.750;11.970;2023-06-22T07:02:07;74979.50;;;-142.11;100.00
14800;BME280;7491;57.750;11.970;2023-06-22T07:04:34;74965.25;;;-142.11;100.00
14800;BME280;7491;57.750;11.970;2023-06-22T07:07:01;74957.09;;;-142.11;100.00
14800;BME280;7491;57.750;11.970;2023-06-22T07:09:30;74973.38;;;-142.11;100.00
14800;BME280;7491;57.750;11.970;2023-06-22T07:11:56;74977.47;;;-142.11;100.00
14800;BME280;7491;57.750;11.970;2023-06-22T07:14:23;74967.28;;;-142.11;100.00
14800;BME280;7491;57.750;11.970;2023-06-22T07:16:50;74953.00;;;-142.11;100.00
14800;BME280;7491;57.750;11.970;2023-06-22T07:19:24;74955.03;;;-142.11;100.00
14800;BME280;7491;57.750;11.970;2023-06-22T07:21:51;74942.81;;;-142.11;100.00
14800;BME280;7491;57.750;11.970;2023-06-22T07:24:19;74920.41;;;-142.11;100.00
14800;BME280;7491;57.750;11.970;2023-06-22T07:26:47;74885.75;;;-142.11;100.00
14800;BME280;7491;57.750;11.970;2023-06-22T07:29:15;74910.22;;;-142.11;100.00
14800;BME280;7491;57.750;11.970;2023-06-22T07:31:42;74898.00;;;-142.11;100.00
14800;BME280;7491;57.750;11.970;2023-06-22T07:34:09;74916.31;;;-142.11;100.00
14800;BME280;7491;57.750;11.970;2023-06-22T07:36:35;74918.38;;;-142.11;100.00
14800;BME280;7491;57.750;11.970;2023-06-22T07:39:02;74893.91;;;-142.11;100.00
14800;BME280;7491;57.750;11.970;2023-06-22T07:41:29;74893.91;;;-142.11;100.00
14800;BME280;7491;57.750;11.970;2023-06-22T07:43:58;74900.03;;;-142.11;100.00
14800;BME280;7491;57.750;11.970;2023-06-22T07:46:24;74910.22;;;-142.11;100.00
14800;BME280;7491;57.750;11.970;2023-06-22T07:48:51;74906.13;;;-142.11;100.00
14800;BME280;7491;57.750;11.970;2023-06-22T07:51:18;74900.03;;;-142.11;100.00
14800;BME280;7491;57.750;11.970;2023-06-22T07:53:45;74861.31;;;-142.11;100.00
14800;BME280;7491;57.750;11.970;2023-06-22T07:56:12;74853.16;;;-142.11;100.00
14800;BME280;7491;57.750;11.970;2023-06-22T07:58:39;74836.84;;;-142.11;100.00
14800;BME280;7491;57.750;11.970;2023-06-22T08:01:07;74832.78;;;-142.11;100.00
14800;BME280;7491;57.750;11.970;2023-06-22T08:03:34;74859.28;;;-142.11;100.00
14800;BME280;7491;57.750;11.970;2023-06-22T08:06:01;74834.81;;;-142.11;100.00
14800;BME280;7491;57.750;11.970;2023-06-22T08:08:27;74814.44;;;-142.11;100.00
14800;BME280;7491;57.750;11.970;2023-06-22T08:10:54;74802.22;;;-142.11;100.00
14800;BME280;7491;57.750;11.970;2023-06-22T08:13:21;74822.59;;;-142.11;100.00
14800;BME280;7491;57.750;11.970;2023-06-22T08:15:47;74830.75;;;-142.11;100.00
14800;BME280;7491;57.750;11.970;2023-06-22T08:18:16;74816.47;;;-142.11;100.00
14800;BME280;7491;57.750;11.970;2023-06-22T08:20:42;74814.44;;;-142.11;100.00
14800;BME280;7491;57.750;11.970;2023-06-22T08:23:09;74806.28;;;-142.11;100.00
14800;BME280;7491;57.750;11.970;2023-06-22T08:25:36;74802.22;;;-142.11;100.00
14800;BME280;7491;57.750;11.970;2023-06-22T08:28:03;74761.47;;;-142.11;100.00
14800;BME280;7491;57.750;11.970;2023-06-22T08:30:30;74787.94;;;-142.11;100.00
14800;BME280;7491;57.750;11.970;2023-06-22T08:32:57;74802.22;;;-142.11;100.00
14800;BME280;7491;57.750;11.970;2023-06-22T08:35:25;74818.53;;;-142.11;100.00
14800;BME280;7491;57.750;11.970;2023-06-22T08:37:52;74834.81;;;-142.11;100.00
14800;BME280;7491;57.750;11.970;2023-06-22T08:40:21;74820.56;;;-142.11;100.00
14800;BME280;7491;57.750;11.970;2023-06-22T08:42:48;74826.66;;;-142.11;100.00
14800;BME280;7491;57.750;11.970;2023-06-22T08:45:15;74830.75;;;-142.11;100.00
14800;BME280;7491;57.750;11.970;2023-06-22T08:47:42;74810.38;;;-142.11;100.00
14800;BME280;7491;57.750;11.970;2023-06-22T08:50:11;74822.59;;;-142.11;100.00
14800;BME280;7491;57.750;11.970;2023-06-22T08:52:41;74836.84;;;-142.11;100.00
14800;BME280;7491;57.750;11.970;2023-06-22T08:55:08;74824.63;;;-142.11;100.00
14800;BME280;7491;57.750;11.970;2023-06-22T08:57:35;74806.28;;;-142.11;100.00
14800;BME280;7491;57.750;11.970;2023-06-22T09:00:06;74796.09;;;-142.11;100.00
14800;BME280;7491;57.750;11.970;2023-06-22T09:02:40;74790.00;;;-142.11;100.00
14800;BME280;7491;57.750;11.970;2023-06-22T09:05:08;74783.88;;;-142.11;100.00
14800;BME280;7491;57.750;11.970;2023-06-22T09:07:35;74773.69;;;-142.11;100.00
14800;BME280;7491;57.750;11.970;2023-06-22T09:10:03;74800.19;;;-142.11;100.00
14800;BME280;7491;57.750;11.970;2023-06-22T09:12:31;74790.00;;;-142.11;100.00
14800;BME280;7491;57.750;11.970;2023-06-22T09:14:58;74779.81;;;-142.11;100.00
14800;BME280;7491;57.750;11.970;2023-06-22T09:17:25;74771.66;;;-142.11;100.00
14800;BME280;7491;57.750;11.970;2023-06-22T09:19:52;74769.63;;;-142.11;100.00
14800;BME280;7491;57.750;11.970;2023-06-22T09:22:19;74767.56;;;-142.11;100.00
14800;BME280;7491;57.750;11.970;2023-06-22T09:24:46;74739.03;;;-142.11;100.00
14800;BME280;7491;57.750;11.970;2023-06-22T09:27:14;74739.03;;;-142.11;100.00
14800;BME280;7491;57.750;11.970;2023-06-22T09:29:41;74741.09;;;-142.11;100.00
14800;BME280;7491;57.750;11.970;2023-06-22T09:32:08;74787.94;;;-142.11;100.00
14800;BME280;7491;57.750;11.970;2023-06-22T09:34:35;74765.53;;;-142.11;100.00
14800;BME280;7491;57.750;11.970;2023-06-22T09:37:01;74757.38;;;-142.11;100.00
14800;BME280;7491;57.750;11.970;2023-06-22T09:39:28;74743.13;;;-142.11;100.00
14800;BME280;7491;57.750;11.970;2023-06-22T09:41:55;74724.78;;;-142.11;100.00
14800;BME280;7491;57.750;11.970;2023-06-22T09:44:24;74718.66;;;-142.11;100.00
14800;BME280;7491;57.750;11.970;2023-06-22T09:46:53;74726.81;;;-142.11;100.00
14800;BME280;7491;57.750;11.970;2023-06-22T09:49:19;74732.94;;;-142.11;100.00
14800;BME280;7491;57.750;11.970;2023-06-22T09:51:46;74737.00;;;-142.11;100.00
14800;BME280;7491;57.750;11.970;2023-06-22T09:54:15;74771.66;;;-142.11;100.00
14800;BME280;7491;57.750;11.970;2023-06-22T09:56:42;74769.63;;;-142.11;100.00
14800;BME280;7491;57.750;11.970;2023-06-22T09:59:10;74737.00;;;-142.11;100.00
14800;BME280;7491;57.750;11.970;2023-06-22T10:01:40;74722.75;;;-142.11;100.00
14800;BME280;7491;57.750;11.970;2023-06-22T10:04:07;74741.09;;;-142.11;100.00
14800;BME280;7491;57.750;11.970;2023-06-22T10:06:34;74708.47;;;-142.11;100.00
14800;BME280;7491;57.750;11.970;2023-06-22T10:09:01;74728.88;;;-142.11;100.00
14800;BME280;7491;57.750;11.970;2023-06-22T10:11:28;74700.34;;;-142.11;100.00
14800;BME280;7491;57.750;11.970;2023-06-22T10:13:56;74696.25;;;-142.11;100.00
14800;BME280;7491;57.750;11.970;2023-06-22T10:16:24;74679.97;;;-142.11;100.00
14800;BME280;7491;57.750;11.970;2023-06-22T10:18:53;74649.41;;;-142.11;100.00
14800;BME280;7491;57.750;11.970;2023-06-22T10:21:20;74659.59;;;-142.11;100.00
14800;BME280;7491;57.750;11.970;2023-06-22T10:23:47;74655.50;;;-142.11;100.00
14800;BME280;7491;57.750;11.970;2023-06-22T10:26:13;74657.53;;;-142.11;100.00
14800;BME280;7491;57.750;11.970;2023-06-22T10:28:40;74671.81;;;-142.11;100.00
14800;BME280;7491;57.750;11.970;2023-06-22T10:31:07;74655.50;;;-142.11;100.00
14800;BME280;7491;57.750;11.970;2023-06-22T10:33:34;74657.53;;;-142.11;100.00
14800;BME280;7491;57.750;11.970;2023-06-22T10:36:02;74649.41;;;-142.11;100.00
14800;BME280;7491;57.750;11.970;2023-06-22T10:38:29;74647.34;;;-142.11;100.00
14800;BME280;7491;57.750;11.970;2023-06-22T10:40:56;74675.88;;;-142.11;100.00
14800;BME280;7491;57.750;11.970;2023-06-22T10:43:22;74686.06;;;-142.11;100.00
14800;BME280;7491;57.750;11.970;2023-06-22T10:45:50;74708.47;;;-142.11;100.00
14800;BME280;7491;57.750;11.970;2023-06-22T10:48:17;74706.44;;;-142.11;100.00
14800;BME280;7491;57.750;11.970;2023-06-22T10:50:44;74682.00;;;-142.11;100.00
14800;BME280;7491;57.750;11.970;2023-06-22T10:53:12;74677.91;;;-142.11;100.00
14800;BME280;7491;57.750;11.970;2023-06-22T10:55:39;74639.22;;;-142.11;100.00
14800;BME280;7491;57.750;11.970;2023-06-22T10:58:06;74633.09;;;-142.11;100.00
14800;BME280;7491;57.750;11.970;2023-06-22T11:00:32;74645.31;;;-142.11;100.00
14800;BME280;7491;57.750;11.970;2023-06-22T11:02:59;74637.16;;;-142.11;100.00
14800;BME280;7491;57.750;11.970;2023-06-22T11:05:26;74624.94;;;-142.11;100.00
14800;BME280;7491;57.750;11.970;2023-06-22T11:07:52;74622.91;;;-142.11;100.00
14800;BME280;7491;57.750;11.970;2023-06-22T11:10:20;74626.97;;;-142.11;100.00
14800;BME280;7491;57.750;11.970;2023-06-22T11:12:47;74578.06;;;-142.11;100.00
14800;BME280;7491;57.750;11.970;2023-06-22T11:15:14;74561.78;;;-142.11;100.00
14800;BME280;7491;57.750;11.970;2023-06-22T11:17:41;74586.22;;;-142.11;100.00
14800;BME280;7491;57.750;11.970;2023-06-22T11:20:08;74606.59;;;-142.11;100.00
14800;BME280;7491;57.750;11.970;2023-06-22T11:22:36;74622.91;;;-142.11;100.00
14800;BME280;7491;57.750;11.970;2023-06-22T11:25:05;74616.78;;;-142.11;100.00
14800;BME280;7491;57.750;11.970;2023-06-22T11:27:34;74629.00;;;-142.11;100.00
14800;BME280;7491;57.750;11.970;2023-06-22T11:30:00;74612.72;;;-142.11;100.00
14800;BME280;7491;57.750;11.970;2023-06-22T11:32:28;74596.41;;;-142.11;100.00
14800;BME280;7491;57.750;11.970;2023-06-22T11:34:54;74571.97;;;-142.11;100.00
14800;BME280;7491;57.750;11.970;2023-06-22T11:37:21;74584.19;;;-142.11;100.00
14800;BME280;7491;57.750;11.970;2023-06-22T11:39:48;74588.25;;;-142.11;100.00
14800;BME280;7491;57.750;11.970;2023-06-22T11:42:15;74606.59;;;-142.11;100.00
14800;BME280;7491;57.750;11.970;2023-06-22T11:44:43;74580.13;;;-142.11;100.00
14800;BME280;7491;57.750;11.970;2023-06-22T11:47:10;74578.06;;;-142.11;100.00
14800;BME280;7491;57.750;11.970;2023-06-22T11:49:36;74598.44;;;-142.11;100.00
14800;BME280;7491;57.750;11.970;2023-06-22T11:52:04;74590.31;;;-142.11;100.00
14800;BME280;7491;57.750;11.970;2023-06-22T11:54:30;74569.94;;;-142.11;100.00
14800;BME280;7491;57.750;11.970;2023-06-22T11:56:57;74559.75;;;-142.11;100.00
14800;BME280;7491;57.750;11.970;2023-06-22T11:59:27;74576.03;;;-142.11;100.00
14800;BME280;7491;57.750;11.970;2023-06-22T12:01:55;74598.44;;;-142.11;100.00
14800;BME280;7491;57.750;11.970;2023-06-22T12:04:23;74620.88;;;-142.11;100.00
14800;BME280;7491;57.750;11.970;2023-06-22T12:06:50;74590.31;;;-142.11;100.00
14800;BME280;7491;57.750;11.970;2023-06-22T12:09:17;74588.25;;;-142.11;100.00
14800;BME280;7491;57.750;11.970;2023-06-22T12:11:43;74588.25;;;-142.11;100.00
14800;BME280;7491;57.750;11.970;2023-06-22T12:14:10;74633.09;;;-142.11;100.00
14800;BME280;7491;57.750;11.970;2023-06-22T12:16:37;74635.13;;;-142.11;100.00
14800;BME280;7491;57.750;11.970;2023-06-22T12:19:05;74637.16;;;-142.11;100.00
14800;BME280;7491;57.750;11.970;2023-06-22T12:21:32;74651.44;;;-142.11;100.00
14800;BME280;7491;57.750;11.970;2023-06-22T12:23:59;74655.50;;;-142.11;100.00
14800;BME280;7491;57.750;11.970;2023-06-22T12:26:25;74669.78;;;-142.11;100.00
14800;BME280;7491;57.750;11.970;2023-06-22T12:28:52;74673.84;;;-142.11;100.00
14800;BME280;7491;57.750;11.970;2023-06-22T12:31:19;74649.41;;;-142.11;100.00
14800;BME280;7491;57.750;11.970;2023-06-22T12:33:45;74639.22;;;-142.11;100.00